Time;durP1;ratioP1;P1;durP2;ratioP2;P2;SDS_P1;SDS_P2;PMS_P1;PMS_P2;Temp;Humidity;BMP_temperature;BMP_pressure;BME280_temperature;BME280_humidity;BME280_pressure;Samples;Min_cycle;Max_cycle;Signal;HPM_P1;HPM_P2
2023/10/13 00:01:48;;;;;;;936.83;873.20;;;17.40;99.90;;;;;;5094613;28;20524;-73
2023/10/13 00:04:15;;;;;;;935.60;871.70;;;17.50;99.90;;;;;;5094840;28;20426;-73
2023/10/13 00:06:45;;;;;;;941.60;876.50;;;17.40;99.90;;;;;;5094824;28;20441;-73
2023/10/13 00:09:14;;;;;;;935.10;871.27;;;17.40;99.90;;;;;;5094665;28;20477;-73
2023/10/13 00:11:44;;;;;;;933.90;871.20;;;17.50;99.90;;;;;;5094636;28;20441;-73
2023/10/13 00:14:14;;;;;;;948.03;884.13;;;17.50;99.90;;;;;;5094937;28;20477;-73
2023/10/13 00:16:41;;;;;;;940.43;877.57;;;17.50;99.90;;;;;;5094447;28;20453;-73
2023/10/13 00:19:13;;;;;;;941.33;877.60;;;17.40;99.90;;;;;;5094364;28;20456;-73
2023/10/13 00:21:42;;;;;;;941.67;877.37;;;17.40;99.90;;;;;;5094583;28;20445;-73
2023/10/13 00:24:13;;;;;;;943.00;878.70;;;17.40;99.90;;;;;;5094567;28;20965;-73
2023/10/13 00:26:43;;;;;;;938.33;873.73;;;17.50;99.90;;;;;;5094491;28;20456;-73
2023/10/13 00:29:15;;;;;;;936.63;873.03;;;17.50;99.90;;;;;;5094272;28;20446;-73
2023/10/13 00:31:43;;;;;;;949.83;885.53;;;17.50;99.90;;;;;;5094427;28;20520;-73
2023/10/13 00:34:18;;;;;;;947.60;882.70;;;17.50;99.90;;;;;;5093971;28;20572;-73
2023/10/13 00:36:48;;;;;;;946.37;883.07;;;17.50;99.90;;;;;;5094125;28;20916;-73
2023/10/13 00:39:15;;;;;;;939.33;877.27;;;17.50;99.90;;;;;;5094026;28;20442;-73
2023/10/13 00:41:56;;;;;;;936.90;875.00;;;17.60;99.90;;;;;;5094198;28;20449;-73
2023/10/13 00:44:28;;;;;;;938.67;877.30;;;17.60;99.90;;;;;;5094128;28;20445;-73
2023/10/13 00:46:56;;;;;;;937.97;875.50;;;17.60;99.90;;;;;;5094009;28;20464;-73
2023/10/13 00:49:24;;;;;;;940.13;878.93;;;17.60;99.90;;;;;;5094191;28;20458;-73
2023/10/13 00:51:51;;;;;;;936.70;875.13;;;17.60;99.90;;;;;;5093936;28;20877;-73
2023/10/13 00:54:18;;;;;;;933.10;872.90;;;17.60;99.90;;;;;;5093591;28;20507;-73
2023/10/13 00:56:49;;;;;;;930.90;870.23;;;17.60;99.90;;;;;;5094148;28;20486;-74
2023/10/13 00:59:16;;;;;;;926.87;867.17;;;17.60;99.90;;;;;;5093903;28;20446;-73
2023/10/13 01:01:43;;;;;;;938.93;876.67;;;17.50;99.90;;;;;;5093333;28;20453;-73
2023/10/13 01:04:12;;;;;;;942.07;879.67;;;17.50;99.90;;;;;;5093595;28;20489;-72
2023/10/13 01:06:41;;;;;;;949.10;885.60;;;17.50;99.90;;;;;;5093444;28;20540;-72
2023/10/13 01:09:11;;;;;;;952.63;887.97;;;17.50;99.90;;;;;;5093460;28;20518;-73
2023/10/13 01:11:40;;;;;;;954.80;890.43;;;17.40;99.90;;;;;;5093415;28;20457;-73
2023/10/13 01:14:05;;;;;;;964.60;899.23;;;17.30;99.90;;;;;;5093446;28;20473;-72
2023/10/13 01:16:33;;;;;;;971.37;904.00;;;17.20;99.90;;;;;;5093395;28;20457;-72
2023/10/13 01:18:59;;;;;;;967.50;898.40;;;17.10;99.90;;;;;;5093351;28;20948;-72
2023/10/13 01:21:29;;;;;;;973.47;901.67;;;17.10;99.90;;;;;;5093165;28;20826;-72
2023/10/13 01:23:57;;;;;;;967.97;895.17;;;17.00;99.90;;;;;;5093096;28;20448;-72
2023/10/13 01:26:24;;;;;;;974.27;899.17;;;16.90;99.90;;;;;;5093533;28;20861;-73
2023/10/13 01:28:54;;;;;;;967.57;891.07;;;16.90;99.90;;;;;;5093068;28;20499;-73
2023/10/13 01:31:27;;;;;;;966.57;886.77;;;16.80;99.90;;;;;;5093039;28;21039;-73
2023/10/13 01:33:57;;;;;;;967.23;887.67;;;16.80;99.90;;;;;;5092756;28;20475;-73
2023/10/13 01:36:23;;;;;;;966.67;886.70;;;16.80;99.90;;;;;;5093070;28;20449;-73
2023/10/13 01:38:51;;;;;;;971.53;889.70;;;16.70;99.90;;;;;;5092946;28;20449;-73
2023/10/13 01:41:19;;;;;;;968.83;886.80;;;16.70;99.90;;;;;;5093393;28;20772;-73
2023/10/13 01:43:46;;;;;;;968.33;885.80;;;16.60;99.90;;;;;;5092906;28;20524;-73
2023/10/13 01:46:14;;;;;;;974.93;891.53;;;16.60;99.90;;;;;;5092889;28;20823;-73
2023/10/13 01:48:44;;;;;;;970.23;886.73;;;16.60;99.90;;;;;;5092789;28;20470;-73
2023/10/13 01:51:11;;;;;;;964.73;879.27;;;16.60;99.90;;;;;;5092448;28;20822;-73
2023/10/13 01:53:42;;;;;;;969.77;883.10;;;16.60;99.90;;;;;;5092568;28;20480;-73
2023/10/13 01:56:11;;;;;;;970.93;882.77;;;16.50;99.90;;;;;;5092747;28;20480;-73
2023/10/13 01:58:42;;;;;;;967.83;879.03;;;16.50;99.90;;;;;;5092724;28;20818;-73
2023/10/13 02:01:09;;;;;;;972.37;883.17;;;16.50;99.90;;;;;;5092483;28;20448;-74
2023/10/13 02:03:41;;;;;;;982.43;892.10;;;16.50;99.90;;;;;;5092507;28;20453;-74
2023/10/13 02:06:10;;;;;;;980.43;889.67;;;16.50;99.90;;;;;;5092950;28;20479;-74
2023/10/13 02:08:40;;;;;;;973.47;882.47;;;16.50;99.90;;;;;;5092547;28;20457;-74
2023/10/13 02:11:07;;;;;;;977.23;885.03;;;16.50;99.90;;;;;;5092641;28;20453;-74
2023/10/13 02:13:41;;;;;;;985.23;892.17;;;16.50;99.90;;;;;;5092334;28;20469;-75
2023/10/13 02:16:08;;;;;;;954.17;858.97;;;16.50;99.90;;;;;;5092814;28;20460;-77
2023/10/13 02:18:43;;;;;;;1134.83;999.90;;;16.50;99.90;;;;;;5092591;28;20493;-80
2023/10/13 02:21:12;;;;;;;1187.63;999.90;;;16.50;99.90;;;;;;5092530;28;20444;-79
2023/10/13 02:23:44;;;;;;;1203.37;999.90;;;16.40;99.90;;;;;;5092575;28;20457;-78
2023/10/13 02:26:14;;;;;;;1192.93;999.90;;;16.40;99.90;;;;;;5092589;28;20510;-77
2023/10/13 02:28:41;;;;;;;1196.00;999.90;;;16.40;99.90;;;;;;5092524;28;20449;-77
2023/10/13 02:31:08;;;;;;;1219.47;999.90;;;16.50;99.90;;;;;;5092359;28;21035;-76
2023/10/13 02:33:44;;;;;;;1193.90;999.90;;;16.40;99.90;;;;;;5092022;28;21003;-76
2023/10/13 02:36:12;;;;;;;1198.07;999.90;;;16.40;99.90;;;;;;5092527;28;20455;-75
2023/10/13 02:38:45;;;;;;;1205.27;999.90;;;16.40;99.90;;;;;;5092490;28;20506;-75
2023/10/13 02:41:18;;;;;;;1188.63;999.90;;;16.40;99.90;;;;;;5092269;28;20495;-75
2023/10/13 02:43:45;;;;;;;1207.50;999.90;;;16.40;99.90;;;;;;5092181;28;20933;-75
2023/10/13 02:46:15;;;;;;;1219.53;999.90;;;16.50;99.90;;;;;;5092646;28;20481;-75
2023/10/13 02:48:46;;;;;;;1235.30;999.90;;;16.50;99.90;;;;;;5092410;28;20453;-75
2023/10/13 02:51:15;;;;;;;1237.20;999.90;;;16.50;99.90;;;;;;5092221;28;20453;-75
2023/10/13 02:53:46;;;;;;;1250.57;999.90;;;16.50;99.90;;;;;;5092146;28;20563;-75
2023/10/13 02:56:13;;;;;;;1243.83;999.90;;;16.50;99.90;;;;;;5092792;28;20437;-74
2023/10/13 02:58:45;;;;;;;1262.47;999.90;;;16.50;99.90;;;;;;5092535;28;20459;-74
2023/10/13 03:01:19;;;;;;;1266.10;999.90;;;16.50;99.90;;;;;;5092386;28;20508;-74
2023/10/13 03:03:49;;;;;;;1272.73;999.90;;;16.50;99.90;;;;;;5095604;28;20457;-74
2023/10/13 03:06:18;;;;;;;1267.70;999.90;;;16.40;99.90;;;;;;5096040;28;20454;-74
2023/10/13 03:08:44;;;;;;;1270.97;999.90;;;16.40;99.90;;;;;;5096227;28;20544;-74
2023/10/13 03:11:13;;;;;;;1270.70;999.90;;;16.40;99.90;;;;;;5095900;28;20536;-74
2023/10/13 03:13:44;;;;;;;1269.17;999.90;;;16.40;99.90;;;;;;5095638;28;20245;-74
2023/10/13 03:16:19;;;;;;;1277.67;999.90;;;16.40;99.90;;;;;;5095849;28;20971;-74
2023/10/13 03:18:53;;;;;;;1269.27;999.90;;;16.40;99.90;;;;;;5095759;28;20429;-74
2023/10/13 03:21:29;;;;;;;1261.10;999.90;;;16.30;99.90;;;;;;5096013;28;20804;-74
2023/10/13 03:23:56;;;;;;;1267.23;999.90;;;16.30;99.90;;;;;;5095815;28;20933;-73
2023/10/13 03:26:23;;;;;;;1267.50;999.90;;;16.30;99.90;;;;;;5095900;28;20523;-74
2023/10/13 03:28:53;;;;;;;1274.53;999.90;;;16.30;99.90;;;;;;5095766;28;20886;-74
2023/10/13 03:31:27;;;;;;;1274.13;999.90;;;16.30;99.90;;;;;;5095876;28;20540;-74
2023/10/13 03:33:59;;;;;;;1269.07;999.90;;;16.20;99.90;;;;;;5095609;28;20514;-74
2023/10/13 03:39:11;;;;;;;1276.73;999.90;;;16.20;99.90;;;;;;5095218;28;20980;-73
2023/10/13 03:41:39;;;;;;;1292.67;999.90;;;16.30;99.90;;;;;;5095570;28;20540;-73
2023/10/13 03:44:09;;;;;;;1279.30;999.90;;;16.30;99.90;;;;;;5095360;28;20441;-73
2023/10/13 03:46:40;;;;;;;1289.73;999.90;;;16.30;99.90;;;;;;5095422;28;20518;-73
2023/10/13 03:49:12;;;;;;;1281.63;999.90;;;16.30;99.90;;;;;;5095293;28;20445;-73
2023/10/13 03:51:40;;;;;;;1292.80;999.90;;;16.30;99.90;;;;;;5095131;28;20441;-76
2023/10/13 03:54:08;;;;;;;1304.83;999.90;;;16.30;99.90;;;;;;5094945;28;20564;-73
2023/10/13 03:56:39;;;;;;;1299.40;999.90;;;16.30;99.90;;;;;;5095215;28;20537;-73
2023/10/13 03:59:09;;;;;;;1292.53;999.90;;;16.30;99.90;;;;;;5095087;28;20468;-72
2023/10/13 04:01:45;;;;;;;1306.30;999.90;;;16.30;99.90;;;;;;5095335;28;20477;-73
2023/10/13 04:04:14;;;;;;;1299.03;999.90;;;16.30;99.90;;;;;;5094682;28;20532;-72
2023/10/13 04:06:51;;;;;;;1303.87;999.90;;;16.30;99.90;;;;;;5094904;28;20455;-73
2023/10/13 04:13:50;;;;;;;1311.13;999.90;;;16.40;99.90;;;;;;5094506;28;20443;-72
2023/10/13 04:15:23;;;;;;;1304.07;999.90;;;16.40;99.90;;;;;;5094363;28;20481;-73
2023/10/13 04:17:51;;;;;;;1309.30;999.90;;;16.40;99.90;;;;;;5094713;28;20449;-73
2023/10/13 04:20:32;;;;;;;1299.83;999.90;;;16.40;99.90;;;;;;5094660;28;20445;-73
2023/10/13 04:23:19;;;;;;;1324.97;999.90;;;16.40;99.90;;;;;;5094318;28;20540;-76
2023/10/13 04:28:37;;;;;;;1297.57;999.90;;;16.40;99.90;;;;;;5089071;28;20524;-75
2023/10/13 04:31:11;;;;;;;1311.57;999.90;;;16.40;99.90;;;;;;5094524;28;20475;-77
2023/10/13 04:33:51;;;;;;;1299.40;999.90;;;16.40;99.90;;;;;;5094414;28;20473;-76
2023/10/13 04:36:21;;;;;;;1318.43;999.90;;;16.40;99.90;;;;;;5094354;28;20436;-76
2023/10/13 04:39:09;;;;;;;1310.93;999.90;;;16.30;99.90;;;;;;5094481;28;20453;-76
2023/10/13 04:41:38;;;;;;;1311.83;999.90;;;16.40;99.90;;;;;;5094285;28;20453;-76
2023/10/13 04:44:45;;;;;;;1339.33;999.90;;;16.40;99.90;;;;;;5094251;28;20815;-76
2023/10/13 04:47:07;;;;;;;1338.87;999.90;;;16.40;99.90;;;;;;5094309;28;20810;-77
2023/10/13 04:49:51;;;;;;;1335.10;999.90;;;16.40;99.90;;;;;;5094416;28;20450;-77
2023/10/13 04:57:52;;;;;;;1339.80;999.90;;;16.50;99.90;;;;;;5093684;28;20472;-76
2023/10/13 05:44:37;;;;;;;1246.13;926.60;;;16.90;99.90;;;;;;5092232;28;20429;-77
2023/10/13 05:49:53;;;;;;;1316.70;999.90;;;17.10;99.90;;;;;;5092633;28;20436;-75
2023/10/13 05:52:19;;;;;;;1350.07;999.90;;;17.20;99.90;;;;;;5092729;28;20510;-77
2023/10/13 06:30:30;;;;;;;1416.33;999.90;;;17.60;99.90;;;;;;5091870;28;20994;-75
2023/10/13 06:33:01;;;;;;;1403.47;999.90;;;17.60;99.90;;;;;;5092063;28;20449;-74
2023/10/13 06:35:28;;;;;;;1404.03;999.90;;;17.60;99.90;;;;;;5091620;28;21047;-75
2023/10/13 06:37:59;;;;;;;1386.23;999.90;;;17.60;99.90;;;;;;5096253;28;20535;-75
2023/10/13 06:40:34;;;;;;;1377.33;999.90;;;17.60;99.90;;;;;;5096041;28;20453;-75
2023/10/13 06:45:50;;;;;;;1333.60;999.90;;;17.60;99.90;;;;;;5095825;28;20528;-75
2023/10/13 06:48:19;;;;;;;1319.60;999.90;;;17.50;99.90;;;;;;5096094;28;20862;-75
2023/10/13 06:50:49;;;;;;;1312.47;999.90;;;17.40;99.90;;;;;;5095303;28;20449;-75
2023/10/13 06:53:16;;;;;;;1303.03;999.90;;;17.40;99.90;;;;;;5094889;28;20536;-75
2023/10/13 06:55:46;;;;;;;1304.13;999.90;;;17.40;99.90;;;;;;5095784;28;20500;-75
2023/10/13 06:58:14;;;;;;;1316.70;999.90;;;17.40;99.90;;;;;;5095548;28;20461;-75
2023/10/13 07:00:52;;;;;;;1327.07;999.90;;;17.40;99.90;;;;;;5094449;28;20456;-75
2023/10/13 07:03:19;;;;;;;1312.80;999.90;;;17.40;99.90;;;;;;5095217;28;20464;-75
2023/10/13 07:05:47;;;;;;;1318.23;999.90;;;17.50;99.90;;;;;;5095240;28;20441;-75
2023/10/13 07:08:19;;;;;;;1332.60;999.90;;;17.50;99.90;;;;;;5094727;28;20518;-75
2023/10/13 07:10:51;;;;;;;1306.97;999.90;;;17.50;99.90;;;;;;5095001;28;20531;-75
2023/10/13 07:13:20;;;;;;;1298.63;999.90;;;17.60;99.90;;;;;;5094805;28;20544;-75
2023/10/13 07:15:47;;;;;;;1298.17;999.90;;;17.60;99.90;;;;;;5094721;28;20473;-75
2023/10/13 07:18:15;;;;;;;1314.73;999.90;;;17.60;99.90;;;;;;5095005;28;20948;-75
2023/10/13 07:20:45;;;;;;;1316.47;999.90;;;17.70;99.90;;;;;;5094451;28;20967;-75
2023/10/13 07:23:17;;;;;;;1299.97;999.90;;;17.70;99.90;;;;;;5094833;28;20449;-75
2023/10/13 07:25:53;;;;;;;1273.77;999.90;;;17.70;99.90;;;;;;5095176;28;20477;-75
2023/10/13 07:28:21;;;;;;;1287.27;999.90;;;17.70;99.90;;;;;;5095015;28;20528;-74
2023/10/13 07:31:11;;;;;;;1256.50;999.90;;;17.80;99.90;;;;;;5095241;28;20475;-75
2023/10/13 07:33:37;;;;;;;1270.43;999.90;;;17.80;99.90;;;;;;5094541;28;20453;-74
2023/10/13 07:36:11;;;;;;;1224.60;999.90;;;17.90;99.90;;;;;;5094687;28;20449;-74
2023/10/13 07:38:42;;;;;;;1208.60;999.90;;;18.00;99.90;;;;;;5094918;28;20499;-74
2023/10/13 07:41:09;;;;;;;1171.13;999.90;;;18.10;99.90;;;;;;5094392;28;20480;-75
2023/10/13 07:43:38;;;;;;;1133.17;999.90;;;18.20;99.90;;;;;;5094523;28;20453;-74
2023/10/13 07:46:09;;;;;;;1090.63;970.07;;;18.20;99.90;;;;;;5094927;28;20441;-74
2023/10/13 07:48:37;;;;;;;1077.87;938.73;;;18.20;99.90;;;;;;5093909;28;20674;-75
2023/10/13 07:51:08;;;;;;;1055.27;935.77;;;18.30;99.90;;;;;;5094483;28;20971;-76
2023/10/13 07:53:35;;;;;;;1055.07;909.72;;;18.30;99.90;;;;;;5093399;28;20444;-75
2023/10/13 07:56:05;;;;;;;934.00;830.80;;;18.40;99.90;;;;;;5095210;28;20226;-74
2023/10/13 07:58:33;;;;;;;920.13;820.00;;;18.40;99.90;;;;;;5095268;28;21002;-75
2023/10/13 08:01:07;;;;;;;913.50;816.63;;;18.50;99.90;;;;;;5094552;28;20450;-74
2023/10/13 08:06:25;;;;;;;899.97;819.20;;;18.60;99.90;;;;;;5093813;28;20526;-75
2023/10/13 08:08:55;;;;;;;903.73;833.00;;;18.70;99.90;;;;;;5094068;28;20476;-75
2023/10/13 08:11:26;;;;;;;895.90;832.77;;;18.80;99.90;;;;;;5094252;28;20496;-75
2023/10/13 08:13:56;;;;;;;862.40;807.40;;;19.00;99.90;;;;;;5094376;28;20449;-75
2023/10/13 08:16:29;;;;;;;852.77;803.37;;;19.00;99.90;;;;;;5094443;28;20453;-76
2023/10/13 08:18:56;;;;;;;830.53;784.53;;;19.20;99.90;;;;;;5094220;28;20453;-75
2023/10/13 08:21:23;;;;;;;801.13;759.33;;;19.30;99.90;;;;;;5093941;28;20476;-75
2023/10/13 08:24:05;;;;;;;793.93;754.13;;;19.40;99.90;;;;;;5094276;28;20445;-75
2023/10/13 08:35:09;;;;;;;490.27;471.73;;;20.10;99.90;;;;;;5092341;28;20473;-75
2023/10/13 08:37:46;;;;;;;338.77;326.77;;;20.20;99.90;;;;;;5094169;28;20445;-75
2023/10/13 08:43:12;;;;;;;334.37;322.73;;;20.70;99.90;;;;;;5093589;28;20437;-75
2023/10/13 08:45:58;;;;;;;222.33;214.07;;;20.80;99.90;;;;;;5094025;28;20441;-75
2023/10/13 08:48:32;;;;;;;174.10;167.57;;;20.80;99.90;;;;;;5094010;28;20449;-73
2023/10/13 08:51:09;;;;;;;84.00;80.10;;;21.00;99.90;;;;;;5093456;28;20442;-75
2023/10/13 08:53:45;;;;;;;48.17;45.30;;;21.20;99.90;;;;;;5093566;28;20535;-75
2023/10/13 08:56:15;;;;;;;24.13;22.13;;;21.60;99.90;;;;;;5093613;28;20473;-75
2023/10/13 08:59:06;;;;;;;14.80;13.17;;;22.00;99.90;;;;;;5093625;28;20449;-74
2023/10/13 09:01:39;;;;;;;15.67;8.93;;;22.30;99.90;;;;;;5093721;28;20762;-74
2023/10/13 09:04:21;;;;;;;16.17;7.60;;;22.60;99.90;;;;;;5093028;28;20922;-74
2023/10/13 09:07:07;;;;;;;17.50;7.00;;;22.60;96.20;;;;;;5092754;28;20441;-75
2023/10/13 09:09:59;;;;;;;16.40;6.93;;;22.60;96.20;;;;;;5093189;28;20494;-75
2023/10/13 09:12:35;;;;;;;12.30;6.87;;;22.60;93.40;;;;;;5093280;28;20451;-74
2023/10/13 09:15:06;;;;;;;14.33;7.63;;;22.90;95.60;;;;;;5093006;28;20465;-74
2023/10/13 09:17:35;;;;;;;19.20;6.63;;;23.00;92.90;;;;;;5093359;28;20943;-74
2023/10/13 09:22:54;;;;;;;17.50;7.07;;;23.20;89.00;;;;;;5092883;28;20461;-73
2023/10/13 09:25:22;;;;;;;13.03;6.77;;;23.30;81.20;;;;;;5093002;28;20444;-74
2023/10/13 09:27:51;;;;;;;14.20;6.60;;;23.50;81.40;;;;;;5093198;28;20475;-71
2023/10/13 09:30:18;;;;;;;16.57;7.30;;;23.60;81.50;;;;;;5092617;28;20561;-74
2023/10/13 09:32:48;;;;;;;13.80;5.90;;;24.00;81.60;;;;;;5092651;28;20485;-73
2023/10/13 09:35:22;;;;;;;18.93;6.80;;;23.80;77.80;;;;;;5092700;28;20592;-74
2023/10/13 09:37:50;;;;;;;11.93;6.67;;;23.80;76.10;;;;;;5092707;28;20445;-73
2023/10/13 09:40:29;;;;;;;20.20;7.27;;;24.00;73.70;;;;;;5092802;28;20545;-73
2023/10/13 09:42:56;;;;;;;15.87;7.97;;;24.00;73.70;;;;;;5092339;28;20449;-73
2023/10/13 09:45:29;;;;;;;18.10;7.77;;;23.90;73.70;;;;;;5091055;28;20446;-73
2023/10/13 09:48:06;;;;;;;13.27;6.90;;;23.90;73.60;;;;;;5092051;28;20445;-73
2023/10/13 09:50:37;;;;;;;13.77;6.43;;;23.80;74.30;;;;;;5092159;28;20502;-73
2023/10/13 09:53:08;;;;;;;11.30;6.33;;;24.00;72.00;;;;;;5092385;28;20542;-73
2023/10/13 09:55:39;;;;;;;16.97;7.70;;;23.90;65.40;;;;;;5092311;28;20473;-73
2023/10/13 09:58:10;;;;;;;13.13;6.60;;;23.80;65.30;;;;;;5092314;28;20452;-74
2023/10/13 10:00:56;;;;;;;21.00;7.97;;;24.10;65.60;;;;;;5092777;28;20457;-73
2023/10/13 10:03:39;;;;;;;13.97;7.53;;;24.10;65.60;;;;;;5091929;28;20949;-73
2023/10/13 10:06:13;;;;;;;19.33;7.67;;;24.00;65.50;;;;;;5091751;28;20506;-74
2023/10/13 10:08:48;;;;;;;18.10;6.43;;;24.10;62.00;;;;;;5092392;28;20463;-73
2023/10/13 10:11:47;;;;;;;18.17;8.13;;;24.10;57.10;;;;;;5091520;28;20452;-72
2023/10/13 10:14:20;;;;;;;14.07;8.10;;;24.40;60.50;;;;;;5092280;28;20452;-73
2023/10/13 10:16:59;;;;;;;15.40;6.87;;;24.70;57.60;;;;;;5092735;28;20502;-73
2023/10/13 10:19:26;;;;;;;12.93;8.00;;;25.10;58.00;;;;;;5092907;28;20528;-73
2023/10/13 10:22:10;;;;;;;13.77;7.50;;;25.40;58.20;;;;;;5092493;28;20539;-73
2023/10/13 10:24:38;;;;;;;15.00;7.77;;;25.30;58.10;;;;;;5092703;28;20453;-73
2023/10/13 10:27:05;;;;;;;14.03;7.77;;;25.20;53.50;;;;;;5092579;28;20449;-71
2023/10/13 10:29:32;;;;;;;11.87;6.43;;;25.70;54.70;;;;;;5092172;28;20454;-70
2023/10/13 10:31:59;;;;;;;15.80;8.67;;;26.20;49.90;;;;;;5092359;28;20445;-71
2023/10/13 10:34:33;;;;;;;13.83;7.53;;;26.60;50.20;;;;;;5092126;28;20813;-69
2023/10/13 10:37:08;;;;;;;14.80;8.10;;;26.70;41.20;;;;;;5092173;28;20869;-69
2023/10/13 10:39:44;;;;;;;18.73;7.90;;;26.90;41.30;;;;;;5092235;28;20481;-69
2023/10/13 10:42:17;;;;;;;16.13;8.23;;;27.00;41.40;;;;;;5092289;28;20449;-71
2023/10/13 10:44:44;;;;;;;12.27;7.20;;;27.40;38.90;;;;;;5092141;28;20495;-69
2023/10/13 10:47:11;;;;;;;20.07;8.20;;;27.70;32.60;;;;;;5091996;28;20445;-69
2023/10/13 10:49:40;;;;;;;15.10;6.93;;;27.80;33.60;;;;;;5091932;28;20936;-69
2023/10/13 10:52:18;;;;;;;12.10;7.27;;;27.60;29.80;;;;;;5092454;28;20448;-69
2023/10/13 10:54:51;;;;;;;17.97;8.40;;;27.80;27.30;;;;;;5091982;28;20448;-69
2023/10/13 10:57:18;;;;;;;11.73;7.40;;;28.00;25.00;;;;;;5092155;28;20449;-72
2023/10/13 10:59:45;;;;;;;19.13;8.30;;;28.40;24.50;;;;;;5092009;28;20820;-69
2023/10/13 11:02:15;;;;;;;17.63;8.43;;;28.60;17.80;;;;;;5091181;28;20548;-69
2023/10/13 11:04:50;;;;;;;14.03;7.00;;;28.80;17.90;;;;;;5090879;28;20844;-69
2023/10/13 11:07:24;;;;;;;13.60;7.40;;;27.70;17.30;;;;;;5091097;28;20459;-69
2023/10/13 11:09:52;;;;;;;15.93;7.60;;;27.40;19.60;;;;;;5091170;28;20449;-69
2023/10/13 11:12:26;;;;;;;15.37;6.93;;;27.20;24.50;;;;;;5091551;28;20460;-71
2023/10/13 11:15:05;;;;;;;13.07;7.00;;;27.00;21.80;;;;;;5091726;28;20453;-71
2023/10/13 11:17:41;;;;;;;24.27;8.20;;;27.30;20.30;;;;;;5091857;28;21131;-71
2023/10/13 11:20:17;;;;;;;15.80;7.90;;;27.30;19.60;;;;;;5091602;28;20453;-71
2023/10/13 11:22:49;;;;;;;15.33;7.23;;;27.00;19.80;;;;;;5091904;28;20549;-71
2023/10/13 11:25:29;;;;;;;18.07;7.43;;;26.70;21.60;;;;;;5095283;28;20814;-71
2023/10/13 11:27:58;;;;;;;17.00;7.27;;;26.60;24.20;;;;;;5095708;28;20773;-71
2023/10/13 11:30:29;;;;;;;15.57;7.83;;;26.20;23.90;;;;;;5095540;28;20453;-71
2023/10/13 11:33:05;;;;;;;22.53;9.67;;;26.00;23.90;;;;;;5095021;28;20536;-71
2023/10/13 11:38:15;;;;;;;14.50;7.50;;;25.40;23.50;;;;;;5095231;28;20448;-69
2023/10/13 11:41:06;;;;;;;14.50;6.93;;;25.30;25.90;;;;;;5095676;28;20803;-70
2023/10/13 11:43:35;;;;;;;17.93;5.77;;;25.30;30.90;;;;;;5095179;28;20196;-71
2023/10/13 11:46:12;;;;;;;22.87;7.33;;;25.30;27.10;;;;;;5095298;28;20449;-73
2023/10/13 11:48:41;;;;;;;18.40;7.00;;;25.50;28.90;;;;;;5095014;28;20788;-72
2023/10/13 11:51:16;;;;;;;17.83;7.57;;;25.50;28.30;;;;;;5094988;28;20453;-73
2023/10/13 11:53:47;;;;;;;28.03;8.70;;;25.30;27.00;;;;;;5094913;28;20480;-74
2023/10/13 11:56:17;;;;;;;23.97;7.43;;;25.10;30.50;;;;;;5094876;28;20516;-74
2023/10/13 11:58:45;;;;;;;21.33;6.97;;;25.00;27.10;;;;;;5094899;28;20450;-74
2023/10/13 12:01:21;;;;;;;19.67;6.80;;;24.90;23.30;;;;;;5094752;28;20461;-73
2023/10/13 12:06:46;;;;;;;18.67;7.37;;;24.90;23.30;;;;;;5094997;28;20916;-73
2023/10/13 12:09:41;;;;;;;19.17;6.57;;;24.80;23.20;;;;;;5094767;28;20502;-74
2023/10/13 12:12:08;;;;;;;31.60;8.50;;;24.80;23.20;;;;;;5094250;28;20515;-74
2023/10/13 12:14:37;;;;;;;24.97;7.80;;;24.80;25.60;;;;;;5094439;28;20450;-74
2023/10/13 12:17:10;;;;;;;19.57;5.93;;;24.80;23.20;;;;;;5094056;28;20473;-74
2023/10/13 12:19:38;;;;;;;18.30;7.00;;;24.70;23.10;;;;;;5094443;28;20453;-73
2023/10/13 12:22:08;;;;;;;22.87;7.70;;;24.70;23.10;;;;;;5086809;28;20991;-73
2023/10/13 12:24:42;;;;;;;15.50;6.77;;;24.80;23.20;;;;;;5073548;28;20447;-73
2023/10/13 12:27:19;;;;;;;25.13;7.97;;;24.80;23.20;;;;;;5073860;28;20446;-73
2023/10/13 12:29:47;;;;;;;16.40;6.97;;;24.80;23.20;;;;;;5073527;28;20450;-73
2023/10/13 12:32:14;;;;;;;27.63;7.53;;;24.80;25.00;;;;;;5073689;28;20450;-74
2023/10/13 12:34:59;;;;;;;20.43;6.50;;;24.60;29.10;;;;;;5073055;28;20541;-74
2023/10/13 12:37:49;;;;;;;26.97;6.43;;;24.40;30.10;;;;;;5075478;28;20442;-73
2023/10/13 12:51:40;;;;;;;25.10;7.43;;;24.80;27.70;;;;;;5093559;28;20525;-74
2023/10/13 12:54:13;;;;;;;18.93;7.00;;;24.90;27.30;;;;;;5091792;28;20449;-74
2023/10/13 12:56:42;;;;;;;14.00;6.10;;;24.90;23.20;;;;;;5092403;28;20473;-73
2023/10/13 12:59:13;;;;;;;22.90;6.80;;;24.90;23.20;;;;;;5092611;28;20855;-74
2023/10/13 13:01:42;;;;;;;21.37;7.17;;;25.00;23.30;;;;;;5092991;28;20862;-73
2023/10/13 13:04:12;;;;;;;16.20;6.87;;;25.10;23.30;;;;;;5092464;28;21038;-73
2023/10/13 13:06:40;;;;;;;17.90;6.40;;;24.90;23.20;;;;;;5092626;28;20441;-73
2023/10/13 13:09:09;;;;;;;18.40;7.20;;;25.00;23.30;;;;;;5092666;28;20456;-73
2023/10/13 13:11:39;;;;;;;22.73;8.50;;;25.00;23.30;;;;;;5093031;28;20507;-73
2023/10/13 13:14:08;;;;;;;15.13;7.40;;;25.00;23.30;;;;;;5093649;28;20457;-74
2023/10/13 13:16:35;;;;;;;18.20;7.63;;;25.10;23.30;;;;;;5092988;28;20544;-74
2023/10/13 13:19:09;;;;;;;19.77;8.23;;;25.20;19.70;;;;;;5093359;28;20468;-74
2023/10/13 13:21:36;;;;;;;19.13;6.27;;;25.00;23.30;;;;;;5092656;28;20445;-73
2023/10/13 13:24:05;;;;;;;18.30;7.83;;;24.60;23.00;;;;;;5093305;28;20457;-74
2023/10/13 13:26:32;;;;;;;18.87;6.77;;;24.50;24.20;;;;;;5093317;28;20441;-74
2023/10/13 13:28:59;;;;;;;26.33;9.87;;;24.30;25.30;;;;;;5093272;28;20452;-74
2023/10/13 13:31:29;;;;;;;19.63;7.80;;;24.20;26.30;;;;;;5092909;28;20500;-74
2023/10/13 13:33:56;;;;;;;23.20;7.40;;;24.10;26.40;;;;;;5092854;28;20949;-73
2023/10/13 13:36:24;;;;;;;18.77;7.27;;;23.90;22.70;;;;;;5092639;28;20479;-74
2023/10/13 13:38:51;;;;;;;26.50;8.63;;;24.00;22.80;;;;;;5092833;28;20495;-73
2023/10/13 13:41:19;;;;;;;18.30;6.90;;;23.70;29.60;;;;;;5092817;28;20449;-73
2023/10/13 13:43:54;;;;;;;22.23;6.37;;;23.60;29.60;;;;;;5092670;28;20452;-74
2023/10/13 13:46:24;;;;;;;13.83;5.70;;;23.70;29.70;;;;;;5092031;28;20452;-73
2023/10/13 13:48:58;;;;;;;18.07;7.37;;;23.70;29.70;;;;;;5092263;28;20450;-74
2023/10/13 13:51:27;;;;;;;19.13;6.77;;;23.60;29.60;;;;;;5092614;28;20507;-73
2023/10/13 13:53:55;;;;;;;22.67;7.27;;;23.60;29.60;;;;;;5092533;28;20446;-73
2023/10/13 13:56:25;;;;;;;22.13;7.00;;;23.70;22.40;;;;;;5092472;28;20476;-73
2023/10/13 13:58:53;;;;;;;23.07;7.00;;;23.70;26.10;;;;;;5092547;28;20481;-73
2023/10/13 14:01:21;;;;;;;23.43;7.50;;;23.70;22.40;;;;;;5092239;28;20453;-74
2023/10/13 14:03:50;;;;;;;29.63;7.50;;;23.70;22.40;;;;;;5092350;28;20500;-73
2023/10/13 14:06:23;;;;;;;19.67;7.03;;;23.70;22.40;;;;;;5092094;28;20449;-73
2023/10/13 14:08:54;;;;;;;20.73;7.20;;;23.50;22.20;;;;;;5092090;28;20452;-73
2023/10/13 14:14:12;;;;;;;24.90;7.00;;;23.40;22.20;;;;;;5092376;28;20436;-74
2023/10/13 14:16:44;;;;;;;17.03;6.90;;;23.30;22.10;;;;;;5092509;28;20477;-73
2023/10/13 14:19:11;;;;;;;15.60;6.70;;;23.30;22.10;;;;;;5092411;28;20451;-73
2023/10/13 14:21:39;;;;;;;19.03;7.67;;;23.30;22.10;;;;;;5091899;28;20528;-73
2023/10/13 14:24:14;;;;;;;17.30;7.87;;;23.20;22.00;;;;;;5092479;28;20451;-74
2023/10/13 14:26:42;;;;;;;21.90;7.30;;;23.20;22.00;;;;;;5092066;28;20531;-73
2023/10/13 14:29:14;;;;;;;20.03;6.93;;;23.20;22.00;;;;;;5092224;28;20450;-73
2023/10/13 14:31:43;;;;;;;18.83;7.07;;;23.20;22.00;;;;;;5091821;28;20544;-72
2023/10/13 14:34:10;;;;;;;12.90;6.40;;;23.10;21.90;;;;;;5091666;28;20457;-73
2023/10/13 14:36:39;;;;;;;24.90;8.43;;;23.00;21.90;;;;;;5091939;28;20514;-73
2023/10/13 14:39:09;;;;;;;19.13;7.00;;;22.90;21.80;;;;;;5091914;28;20532;-73
2023/10/13 14:41:36;;;;;;;23.97;7.10;;;22.80;21.70;;;;;;5092657;28;20449;-73
2023/10/13 14:44:06;;;;;;;18.43;7.80;;;22.70;21.60;;;;;;5092396;28;20492;-73
2023/10/13 14:46:35;;;;;;;13.07;5.73;;;22.70;21.70;;;;;;5092608;28;20445;-73
2023/10/13 14:49:02;;;;;;;12.63;6.23;;;22.60;21.60;;;;;;5092693;28;20452;-74
2023/10/13 14:51:29;;;;;;;20.07;6.20;;;22.70;21.60;;;;;;5092426;28;20451;-74
2023/10/13 14:53:59;;;;;;;19.50;7.40;;;22.60;23.70;;;;;;5092325;28;20831;-74
2023/10/13 14:56:27;;;;;;;16.17;6.40;;;22.50;28.70;;;;;;5092695;28;20302;-73